Time;durP1;ratioP1;P1;durP2;ratioP2;P2;SDS_P1;SDS_P2;PMS_P1;PMS_P2;Temp;Humidity;BMP_temperature;BMP_pressure;BME280_temperature;BME280_humidity;BME280_pressure;Samples;Min_cycle;Max_cycle;Signal;HPM_P1;HPM_P2
2022/09/01 00:00:10;;;;;;;8.70;6.47;;;14.20;99.90;;;;;;5102033;28;20543;-86
2022/09/01 00:02:39;;;;;;;9.47;6.23;;;14.20;99.90;;;;;;5101785;28;20454;-87
2022/09/01 00:05:07;;;;;;;8.50;6.03;;;14.20;99.90;;;;;;5105026;28;20469;-84
2022/09/01 00:07:35;;;;;;;10.87;6.37;;;14.10;99.90;;;;;;5100123;28;21262;-84
2022/09/01 00:10:07;;;;;;;8.70;5.67;;;14.20;99.90;;;;;;5106166;28;20575;-83
2022/09/01 00:12:34;;;;;;;6.97;5.57;;;14.20;99.90;;;;;;5100245;28;20460;-85
2022/09/01 00:15:02;;;;;;;8.50;5.40;;;14.20;99.90;;;;;;5099960;28;20549;-87
2022/09/01 00:17:29;;;;;;;8.03;6.37;;;14.20;99.90;;;;;;5100928;28;20556;-86
2022/09/01 00:19:57;;;;;;;9.17;5.70;;;14.20;99.90;;;;;;5101024;28;20453;-84
2022/09/01 00:22:24;;;;;;;9.37;6.73;;;14.10;99.90;;;;;;5102915;28;21196;-84
2022/09/01 00:24:52;;;;;;;11.13;6.60;;;14.10;99.90;;;;;;5100676;28;20486;-85
2022/09/01 00:27:20;;;;;;;9.20;6.10;;;14.10;99.90;;;;;;5102739;28;20572;-84
2022/09/01 00:29:48;;;;;;;6.80;5.87;;;14.10;99.90;;;;;;5103599;28;20492;-83
2022/09/01 00:32:15;;;;;;;6.93;4.53;;;14.10;99.90;;;;;;5103343;28;20553;-85
2022/09/01 00:34:43;;;;;;;7.97;5.87;;;14.00;99.90;;;;;;5100313;28;20501;-84
2022/09/01 00:37:10;;;;;;;9.43;6.07;;;14.10;99.90;;;;;;5102092;28;20489;-84
2022/09/01 00:39:37;;;;;;;5.97;5.37;;;14.00;99.90;;;;;;5103038;28;20970;-83
2022/09/01 00:42:05;;;;;;;6.33;5.30;;;14.00;99.90;;;;;;5100129;28;20477;-84
2022/09/01 00:44:35;;;;;;;7.93;6.20;;;13.90;99.90;;;;;;5099812;28;20469;-85
2022/09/01 00:47:05;;;;;;;6.10;5.13;;;13.90;99.90;;;;;;5098938;28;20473;-83
2022/09/01 00:49:36;;;;;;;6.10;4.77;;;13.90;99.90;;;;;;5100644;28;20518;-83
2022/09/01 00:52:07;;;;;;;6.23;5.37;;;13.90;99.90;;;;;;5098146;28;20462;-84
2022/09/01 00:54:38;;;;;;;5.07;3.83;;;13.90;99.90;;;;;;5099055;28;20459;-83
2022/09/01 00:57:08;;;;;;;11.53;5.07;;;13.80;99.90;;;;;;5101040;28;20514;-84
2022/09/01 00:59:43;;;;;;;6.07;5.03;;;13.80;99.90;;;;;;5101314;28;20844;-84
2022/09/01 01:02:11;;;;;;;7.67;3.50;;;13.80;99.90;;;;;;5099873;28;20499;-85
2022/09/01 01:04:42;;;;;;;7.80;5.60;;;13.90;99.90;;;;;;5101786;27;20471;-85
2022/09/01 01:07:11;;;;;;;7.20;4.27;;;13.90;99.90;;;;;;5105224;28;20457;-85
2022/09/01 01:09:42;;;;;;;4.27;3.87;;;13.80;99.90;;;;;;5099343;28;20953;-85
2022/09/01 01:12:12;;;;;;;3.57;3.27;;;13.70;99.90;;;;;;5105410;28;20496;-85
2022/09/01 01:14:41;;;;;;;5.27;4.57;;;13.70;99.90;;;;;;5103263;28;20454;-85
2022/09/01 01:17:09;;;;;;;4.93;3.80;;;13.80;99.90;;;;;;5102232;28;20803;-84
2022/09/01 01:25:23;;;;;;;5.07;4.03;;;13.50;99.90;;;;;;5102348;27;20457;-86
2022/09/01 01:28:02;;;;;;;5.33;4.13;;;13.40;99.90;;;;;;5104302;27;20974;-84
2022/09/01 01:30:34;;;;;;;4.30;3.47;;;13.30;99.90;;;;;;5102705;28;20458;-84
2022/09/01 01:33:01;;;;;;;16.37;4.40;;;13.40;99.90;;;;;;5101284;27;20479;-84
2022/09/01 01:35:30;;;;;;;5.60;5.10;;;13.50;99.90;;;;;;5099862;27;20465;-86
2022/09/01 01:37:58;;;;;;;4.20;3.63;;;13.60;99.90;;;;;;5104791;28;20472;-84
2022/09/01 01:40:28;;;;;;;8.63;4.60;;;13.50;99.90;;;;;;5101600;28;20464;-85
2022/09/01 01:42:56;;;;;;;4.60;4.20;;;13.40;99.90;;;;;;5102751;28;20450;-85
2022/09/01 01:45:24;;;;;;;6.97;6.17;;;13.30;99.90;;;;;;5101428;27;20510;-86
2022/09/01 01:47:53;;;;;;;7.60;5.30;;;13.30;99.90;;;;;;5105089;28;20494;-84
2022/09/01 01:50:22;;;;;;;8.27;5.20;;;13.30;99.90;;;;;;5101946;28;20974;-85
2022/09/01 01:52:49;;;;;;;8.90;5.23;;;13.30;99.90;;;;;;5099130;28;20495;-84
2022/09/01 01:55:18;;;;;;;4.53;3.47;;;13.30;99.90;;;;;;5102393;28;20509;-85
2022/09/01 01:57:48;;;;;;;6.40;5.43;;;13.30;99.90;;;;;;5105578;28;20458;-84
2022/09/01 02:00:19;;;;;;;7.10;4.80;;;13.30;99.90;;;;;;5104974;28;20473;-85
2022/09/01 02:02:51;;;;;;;10.53;5.17;;;13.30;99.90;;;;;;5102277;28;20519;-84
2022/09/01 02:05:23;;;;;;;7.03;4.50;;;13.30;99.90;;;;;;5101998;28;21329;-85
2022/09/01 02:07:55;;;;;;;7.03;5.17;;;13.30;99.90;;;;;;5100277;28;20518;-84
2022/09/01 02:10:24;;;;;;;17.83;5.50;;;13.40;99.90;;;;;;5103136;27;20471;-84
2022/09/01 02:12:53;;;;;;;5.53;4.20;;;13.40;99.90;;;;;;5097943;27;20474;-84
2022/09/01 02:15:21;;;;;;;7.80;4.43;;;13.50;99.90;;;;;;5102870;28;21215;-88
2022/09/01 02:17:49;;;;;;;11.03;5.57;;;13.50;99.90;;;;;;5102185;28;20536;-85
2022/09/01 02:20:16;;;;;;;10.60;5.40;;;13.60;99.90;;;;;;5114662;28;20465;-85
2022/09/01 02:22:44;;;;;;;12.63;5.67;;;13.60;99.90;;;;;;5111772;28;20704;-85
2022/09/01 02:25:15;;;;;;;12.73;4.97;;;13.50;99.90;;;;;;5113941;28;20512;-87
2022/09/01 02:27:48;;;;;;;9.60;5.93;;;13.50;99.90;;;;;;5105296;27;20542;-85
2022/09/01 02:30:16;;;;;;;14.27;5.97;;;13.50;99.90;;;;;;5103072;28;20820;-85
2022/09/01 02:32:44;;;;;;;5.70;5.20;;;13.50;99.90;;;;;;5099731;27;20556;-85
2022/09/01 02:35:13;;;;;;;8.83;5.47;;;13.50;99.90;;;;;;5104436;27;20465;-88
2022/09/01 02:37:42;;;;;;;9.37;4.47;;;13.20;99.90;;;;;;5106372;28;20491;-85
2022/09/01 02:40:10;;;;;;;7.17;5.47;;;13.10;99.90;;;;;;5106559;28;20925;-86
2022/09/01 02:42:42;;;;;;;11.00;4.77;;;13.10;99.90;;;;;;5105916;28;20465;-86
2022/09/01 02:45:15;;;;;;;20.10;5.23;;;13.00;99.90;;;;;;5102084;28;20465;-87
2022/09/01 02:47:47;;;;;;;5.57;3.70;;;13.10;99.90;;;;;;5097869;28;20487;-85
2022/09/01 02:50:17;;;;;;;6.90;4.27;;;13.10;99.90;;;;;;5098581;28;20493;-85
2022/09/01 02:52:47;;;;;;;5.10;4.00;;;13.00;99.90;;;;;;5100162;28;20472;-87
2022/09/01 02:55:20;;;;;;;4.40;4.00;;;12.90;99.90;;;;;;5104543;28;20457;-83
2022/09/01 02:57:49;;;;;;;4.17;3.77;;;12.90;99.90;;;;;;5102156;28;20936;-83
2022/09/01 03:00:21;;;;;;;6.47;4.90;;;12.70;99.90;;;;;;5108464;28;20451;-84
2022/09/01 03:02:52;;;;;;;5.23;3.80;;;12.70;99.90;;;;;;5102503;28;20471;-82
2022/09/01 03:05:24;;;;;;;4.87;3.47;;;12.80;99.90;;;;;;5106696;28;20516;-84
2022/09/01 03:07:55;;;;;;;5.60;3.47;;;12.60;99.90;;;;;;5108132;28;20541;-83
2022/09/01 03:10:31;;;;;;;5.83;3.80;;;12.70;99.90;;;;;;5101904;28;20551;-84
2022/09/01 03:13:00;;;;;;;3.30;2.43;;;12.70;99.90;;;;;;5100352;28;20469;-85
2022/09/01 03:15:28;;;;;;;6.57;4.03;;;12.80;99.90;;;;;;5107043;27;20483;-84
2022/09/01 03:17:59;;;;;;;4.60;4.20;;;12.70;99.90;;;;;;5101225;28;20465;-85
2022/09/01 03:20:28;;;;;;;6.50;3.77;;;12.90;99.90;;;;;;5100835;27;20552;-85
2022/09/01 03:22:56;;;;;;;7.00;4.40;;;12.80;99.90;;;;;;5097836;28;21027;-84
2022/09/01 03:25:25;;;;;;;6.37;4.90;;;12.80;99.90;;;;;;5103570;28;20469;-84
2022/09/01 03:27:52;;;;;;;22.50;5.57;;;12.80;99.90;;;;;;5102620;28;21232;-84
2022/09/01 03:30:20;;;;;;;8.00;4.53;;;12.90;99.90;;;;;;5099646;28;20564;-85
2022/09/01 03:32:48;;;;;;;23.63;4.53;;;13.10;99.90;;;;;;5101571;28;20452;-85
2022/09/01 03:35:22;;;;;;;5.37;3.97;;;13.00;99.90;;;;;;5102242;28;20466;-86
2022/09/01 03:37:49;;;;;;;11.13;4.60;;;13.30;99.90;;;;;;5103101;28;20554;-88
2022/09/01 03:40:18;;;;;;;4.60;3.10;;;13.30;99.90;;;;;;5099763;28;20818;-85
2022/09/01 03:42:46;;;;;;;9.43;4.27;;;13.40;99.90;;;;;;5101040;27;20468;-84
2022/09/01 03:45:15;;;;;;;9.40;5.47;;;13.50;99.90;;;;;;5102169;28;20468;-86
2022/09/01 03:47:43;;;;;;;8.23;5.70;;;13.60;99.90;;;;;;5094670;28;20491;-85
2022/09/01 03:50:19;;;;;;;25.03;6.67;;;13.70;99.90;;;;;;5099177;28;20613;-85
2022/09/01 03:52:48;;;;;;;11.23;6.10;;;13.70;99.90;;;;;;5101449;28;20453;-88
2022/09/01 03:55:22;;;;;;;15.00;7.00;;;13.70;99.90;;;;;;5095254;28;20552;-88
2022/09/01 03:57:49;;;;;;;7.53;6.87;;;13.70;99.90;;;;;;5095240;28;20595;-88
2022/09/01 04:00:19;;;;;;;8.53;7.10;;;13.60;99.90;;;;;;5100079;27;20479;-86
2022/09/01 04:02:49;;;;;;;18.63;5.77;;;13.50;99.90;;;;;;5098319;28;21019;-87
2022/09/01 04:05:17;;;;;;;9.93;5.17;;;13.40;99.90;;;;;;5104047;28;20473;-87
2022/09/01 04:07:47;;;;;;;17.40;5.27;;;13.40;99.90;;;;;;5102876;28;20719;-85
2022/09/01 04:10:16;;;;;;;7.90;4.47;;;13.50;99.90;;;;;;5100737;28;21025;-86
2022/09/01 04:12:44;;;;;;;6.63;4.13;;;13.40;99.90;;;;;;5100124;28;20506;-84
2022/09/01 04:15:14;;;;;;;7.87;4.60;;;13.30;99.90;;;;;;5102782;28;20455;-86
2022/09/01 04:20:25;;;;;;;12.13;5.40;;;13.10;99.90;;;;;;5101493;28;20451;-83
2022/09/01 04:22:54;;;;;;;7.73;5.30;;;12.80;99.90;;;;;;5098931;28;20449;-86
2022/09/01 04:25:24;;;;;;;5.27;4.87;;;12.60;99.90;;;;;;5105267;28;20484;-85
2022/09/01 04:27:54;;;;;;;6.10;3.50;;;12.60;99.90;;;;;;5102305;28;20464;-85
2022/09/01 04:30:25;;;;;;;9.60;4.27;;;12.60;99.90;;;;;;5099700;28;20488;-83
2022/09/01 04:32:54;;;;;;;5.03;4.03;;;12.60;99.90;;;;;;5099581;28;20495;-84
2022/09/01 04:35:26;;;;;;;4.93;3.30;;;12.60;99.90;;;;;;5103287;28;20454;-84
2022/09/01 04:37:55;;;;;;;9.83;4.33;;;12.50;99.90;;;;;;5099520;28;20473;-91
2022/09/01 04:40:24;;;;;;;4.70;3.40;;;12.50;99.90;;;;;;5108429;27;20517;-90
2022/09/01 04:42:51;;;;;;;4.37;4.07;;;12.50;99.90;;;;;;5111984;27;20495;-90
2022/09/01 04:45:23;;;;;;;5.83;3.90;;;12.40;99.90;;;;;;5104120;28;20542;-88
2022/09/01 04:47:51;;;;;;;10.17;5.60;;;12.40;99.90;;;;;;5107392;27;21101;-87
2022/09/01 04:50:20;;;;;;;4.93;3.50;;;12.50;99.90;;;;;;5104243;27;20507;-88
2022/09/01 04:52:48;;;;;;;5.70;4.40;;;12.50;99.90;;;;;;5107023;28;20552;-87
2022/09/01 04:55:17;;;;;;;4.80;4.40;;;12.50;99.90;;;;;;5105571;27;20471;-88
2022/09/01 04:57:48;;;;;;;5.57;3.57;;;12.60;99.90;;;;;;5088319;27;20548;-89
2022/09/01 05:00:22;;;;;;;12.63;4.50;;;12.60;99.90;;;;;;5087435;27;20496;-88
2022/09/01 05:02:52;;;;;;;16.60;4.90;;;12.40;99.90;;;;;;5087750;27;20552;-89
2022/09/01 05:05:20;;;;;;;19.30;4.10;;;12.60;99.90;;;;;;5084419;27;21280;-88
2022/09/01 05:07:51;;;;;;;23.20;4.60;;;12.50;99.90;;;;;;5085326;27;20466;-88
2022/09/01 05:10:20;;;;;;;28.77;4.87;;;12.70;99.90;;;;;;5090682;27;20487;-88
2022/09/01 05:12:51;;;;;;;14.97;6.17;;;12.80;99.90;;;;;;5101752;28;20521;-88
2022/09/01 05:15:19;;;;;;;14.40;6.00;;;13.00;99.90;;;;;;5105583;28;20455;-92
2022/09/01 05:17:46;;;;;;;33.53;7.43;;;13.20;99.90;;;;;;5103959;27;20556;-88
2022/09/01 05:20:15;;;;;;;29.53;5.57;;;13.40;99.90;;;;;;5104422;27;20518;-88
2022/09/01 05:22:43;;;;;;;41.30;5.87;;;13.50;99.90;;;;;;5114743;27;21052;-92
2022/09/01 05:25:13;;;;;;;15.13;4.40;;;13.30;99.90;;;;;;5113443;27;20463;-87
2022/09/01 05:27:48;;;;;;;16.07;5.97;;;13.30;99.90;;;;;;5116120;27;20454;-89
2022/09/01 05:30:17;;;;;;;16.60;5.50;;;13.30;99.90;;;;;;5115871;28;20496;-85
2022/09/01 05:32:46;;;;;;;31.37;7.57;;;13.30;99.90;;;;;;5117226;27;20477;-85
2022/09/01 05:35:13;;;;;;;11.03;5.87;;;13.40;99.90;;;;;;5113222;27;20464;-86
2022/09/01 05:37:41;;;;;;;33.47;5.20;;;13.40;99.90;;;;;;5103161;27;20459;-87
2022/09/01 05:40:14;;;;;;;3.27;2.60;;;13.60;99.90;;;;;;5106153;27;20468;-88
2022/09/01 05:42:43;;;;;;;7.67;4.20;;;13.70;99.90;;;;;;5097967;27;20977;-85
2022/09/01 05:45:11;;;;;;;8.13;4.90;;;13.60;99.90;;;;;;5103369;27;20483;-85
2022/09/01 05:47:40;;;;;;;4.83;4.33;;;13.60;99.90;;;;;;5108862;27;20446;-86
2022/09/01 05:50:09;;;;;;;15.00;4.10;;;13.60;99.90;;;;;;5108022;27;20510;-90
2022/09/01 05:52:38;;;;;;;5.03;3.97;;;13.70;99.90;;;;;;5106187;27;20944;-89
2022/09/01 05:55:08;;;;;;;8.33;5.20;;;13.80;99.90;;;;;;5111462;27;20960;-86
2022/09/01 05:57:36;;;;;;;5.90;5.30;;;13.90;99.90;;;;;;5097690;27;20920;-90
2022/09/01 06:00:11;;;;;;;8.53;4.73;;;13.90;99.90;;;;;;5095964;28;20889;-90
2022/09/01 06:02:39;;;;;;;29.27;4.60;;;14.00;99.90;;;;;;5103707;27;20454;-89
2022/09/01 06:05:09;;;;;;;7.40;4.57;;;14.00;99.90;;;;;;5100847;27;20543;-89
2022/09/01 06:07:39;;;;;;;6.60;5.03;;;14.10;99.90;;;;;;5098634;28;20454;-85
2022/09/01 06:10:07;;;;;;;6.63;5.07;;;14.20;99.90;;;;;;5102954;27;20480;-85
2022/09/01 06:12:35;;;;;;;10.60;5.43;;;14.30;99.90;;;;;;5099615;28;20454;-86
2022/09/01 06:15:02;;;;;;;12.73;6.70;;;14.50;99.90;;;;;;5107623;27;21001;-86
2022/09/01 06:17:29;;;;;;;8.00;4.93;;;14.40;99.90;;;;;;5104145;27;20462;-87
2022/09/01 06:19:57;;;;;;;10.30;5.43;;;14.40;99.90;;;;;;5108204;27;20458;-86
2022/09/01 06:22:28;;;;;;;10.27;6.13;;;14.50;99.90;;;;;;5106543;27;20464;-88
2022/09/01 06:24:55;;;;;;;12.30;7.40;;;14.30;99.90;;;;;;5099698;28;20472;-89
2022/09/01 06:27:23;;;;;;;14.93;6.87;;;14.10;99.90;;;;;;5107290;27;20583;-90
2022/09/01 06:29:52;;;;;;;6.10;5.00;;;14.30;99.90;;;;;;5102839;27;20539;-87
2022/09/01 06:32:19;;;;;;;9.47;7.93;;;14.50;99.90;;;;;;5094678;27;20514;-87
2022/09/01 06:34:48;;;;;;;7.50;4.90;;;14.60;99.90;;;;;;5091026;27;20993;-87
2022/09/01 06:37:16;;;;;;;11.47;7.00;;;14.50;99.90;;;;;;5101006;27;20557;-88
2022/09/01 06:39:44;;;;;;;6.90;6.17;;;14.50;99.90;;;;;;5104185;27;20487;-86
2022/09/01 06:42:12;;;;;;;9.40;5.20;;;14.50;99.90;;;;;;5112578;27;20461;-89
2022/09/01 06:44:39;;;;;;;10.93;5.73;;;14.60;99.90;;;;;;5095689;27;20937;-88
2022/09/01 06:47:07;;;;;;;8.20;5.87;;;14.90;99.90;;;;;;5105737;27;21588;-86
2022/09/01 06:49:35;;;;;;;8.27;5.70;;;15.10;99.90;;;;;;5102612;27;20577;-87
2022/09/01 06:52:04;;;;;;;11.87;5.80;;;15.30;99.90;;;;;;5104231;28;20540;-86
2022/09/01 06:54:34;;;;;;;9.80;6.20;;;15.50;99.90;;;;;;5104732;28;20864;-85
2022/09/01 06:57:03;;;;;;;8.23;5.73;;;15.80;99.90;;;;;;5105979;27;20528;-87
2022/09/01 06:59:31;;;;;;;7.87;6.10;;;15.90;99.90;;;;;;5100766;27;20455;-85
2022/09/01 07:02:00;;;;;;;9.67;5.80;;;15.80;99.90;;;;;;5091269;28;20518;-85
2022/09/01 07:04:28;;;;;;;13.70;6.03;;;16.10;99.90;;;;;;5094630;28;20886;-86
2022/09/01 07:06:56;;;;;;;9.03;5.27;;;16.20;99.90;;;;;;5102959;28;20450;-86
2022/09/01 07:09:23;;;;;;;7.70;5.67;;;16.60;99.90;;;;;;5094593;28;21002;-87
2022/09/01 07:11:51;;;;;;;7.80;3.97;;;16.90;99.90;;;;;;5095247;28;20490;-86
2022/09/01 07:14:20;;;;;;;4.20;3.80;;;17.10;99.90;;;;;;5100909;28;20458;-92
2022/09/01 07:16:47;;;;;;;5.67;5.07;;;17.00;99.90;;;;;;5094611;28;20457;-84
2022/09/01 07:19:14;;;;;;;5.27;3.90;;;17.30;99.90;;;;;;5096008;28;21185;-87
2022/09/01 07:21:43;;;;;;;4.77;4.37;;;17.30;99.90;;;;;;5092528;28;20465;-87
2022/09/01 07:24:10;;;;;;;4.43;4.10;;;17.10;99.90;;;;;;5098402;27;20461;-85
2022/09/01 07:26:40;;;;;;;6.10;3.40;;;17.10;99.90;;;;;;5097554;28;20928;-84
2022/09/01 07:29:08;;;;;;;4.03;3.73;;;17.00;99.90;;;;;;5096563;28;20472;-84
2022/09/01 07:31:39;;;;;;;5.30;4.73;;;16.90;99.90;;;;;;5097323;28;20469;-87
2022/09/01 07:34:11;;;;;;;7.63;5.03;;;16.80;99.90;;;;;;5102448;28;20441;-88
2022/09/01 07:36:39;;;;;;;4.80;4.20;;;16.80;99.90;;;;;;5093588;28;20449;-84
2022/09/01 07:39:07;;;;;;;4.50;4.10;;;16.60;99.90;;;;;;5098141;28;20611;-84
2022/09/01 07:41:34;;;;;;;3.17;2.87;;;16.50;99.90;;;;;;5098838;28;20990;-84
2022/09/01 07:44:04;;;;;;;5.37;4.30;;;16.40;99.90;;;;;;5091369;27;21001;-83
2022/09/01 07:46:32;;;;;;;4.30;3.90;;;16.50;99.90;;;;;;5094051;28;20445;-84
2022/09/01 07:49:01;;;;;;;4.30;3.87;;;16.30;99.90;;;;;;5097121;27;21415;-84
2022/09/01 07:51:30;;;;;;;4.80;3.93;;;16.50;99.90;;;;;;5106825;27;20481;-84
2022/09/01 07:53:58;;;;;;;3.50;3.20;;;16.70;99.90;;;;;;5103222;27;20508;-84
2022/09/01 07:56:25;;;;;;;2.67;2.47;;;17.40;99.90;;;;;;5102667;27;20465;-84
2022/09/01 07:58:53;;;;;;;3.40;3.10;;;17.90;99.90;;;;;;5107360;27;20461;-84
2022/09/01 08:01:22;;;;;;;2.40;2.30;;;18.00;99.90;;;;;;5105630;27;20465;-84
2022/09/01 08:03:51;;;;;;;4.23;3.83;;;17.90;99.90;;;;;;5104750;27;20896;-84
2022/09/01 08:06:23;;;;;;;3.40;3.10;;;17.90;99.90;;;;;;5100470;27;20494;-85
2022/09/01 08:08:51;;;;;;;2.93;2.63;;;17.30;99.90;;;;;;5101778;27;21013;-84
2022/09/01 08:11:23;;;;;;;3.20;3.00;;;17.40;99.90;;;;;;5109343;27;20549;-83
2022/09/01 08:13:50;;;;;;;3.07;2.47;;;17.70;99.90;;;;;;5102416;28;20460;-87
2022/09/01 08:16:17;;;;;;;3.30;3.00;;;17.80;99.90;;;;;;5108591;27;20523;-85
2022/09/01 08:18:46;;;;;;;4.17;3.43;;;17.70;99.90;;;;;;5106685;27;20473;-83
2022/09/01 08:21:15;;;;;;;3.53;3.30;;;17.80;99.90;;;;;;5102127;27;20480;-83
2022/09/01 08:23:43;;;;;;;3.70;3.27;;;17.70;99.90;;;;;;5107544;27;20494;-84
2022/09/01 08:26:12;;;;;;;2.67;2.47;;;17.20;99.90;;;;;;5106586;27;20587;-84
2022/09/01 08:28:39;;;;;;;2.90;2.70;;;17.80;99.90;;;;;;5103040;28;20454;-85
2022/09/01 08:31:09;;;;;;;2.20;2.00;;;18.00;99.90;;;;;;5100749;28;20995;-82
2022/09/01 08:33:36;;;;;;;3.07;2.83;;;17.90;99.90;;;;;;5116073;28;20492;-83
2022/09/01 08:36:03;;;;;;;1.60;1.50;;;17.70;99.90;;;;;;5119371;28;20462;-83
2022/09/01 08:38:30;;;;;;;2.27;2.10;;;17.50;99.90;;;;;;5110464;28;20453;-82
2022/09/01 08:40:59;;;;;;;1.70;1.60;;;17.30;99.90;;;;;;5106166;28;21049;-85
2022/09/01 08:43:43;;;;;;;2.67;2.53;;;17.40;99.90;;;;;;5102219;28;20544;-84
2022/09/01 08:46:15;;;;;;;2.27;2.07;;;17.80;99.90;;;;;;5103673;28;20483;-83
2022/09/01 08:48:46;;;;;;;2.70;2.50;;;18.00;99.90;;;;;;5107196;28;20553;-86
2022/09/01 08:51:20;;;;;;;2.50;2.30;;;17.90;99.90;;;;;;5100128;28;20496;-84
2022/09/01 08:53:51;;;;;;;8.93;3.00;;;17.90;99.90;;;;;;5105700;28;20472;-84
2022/09/01 08:56:20;;;;;;;1.37;1.27;;;18.30;99.90;;;;;;5106069;28;20527;-86
2022/09/01 08:58:47;;;;;;;2.40;1.87;;;18.70;99.90;;;;;;5108848;28;20480;-85
2022/09/01 09:01:23;;;;;;;1.90;1.80;;;19.10;99.90;;;;;;5105753;27;20498;-85
2022/09/01 09:04:08;;;;;;;2.70;2.13;;;19.20;99.90;;;;;;5106678;28;20464;-87
2022/09/01 09:06:47;;;;;;;1.63;1.50;;;19.30;99.90;;;;;;5107870;28;20468;-88
2022/09/01 09:09:14;;;;;;;3.63;1.67;;;19.60;99.90;;;;;;5107692;28;20517;-87
2022/09/01 09:11:58;;;;;;;1.53;1.43;;;19.20;99.90;;;;;;5106288;28;20472;-85
2022/09/01 09:14:54;;;;;;;1.63;1.53;;;19.00;99.90;;;;;;5100939;28;20764;-86
2022/09/01 09:17:27;;;;;;;1.50;1.40;;;18.40;99.90;;;;;;5103435;28;21058;-85
2022/09/01 09:19:54;;;;;;;3.23;1.80;;;18.20;99.90;;;;;;5098955;28;20464;-85
2022/09/01 09:22:21;;;;;;;2.03;1.93;;;18.10;99.90;;;;;;5101087;28;21021;-83
2022/09/01 09:24:51;;;;;;;1.43;1.30;;;18.40;99.90;;;;;;5105751;27;20463;-84
2022/09/01 09:27:23;;;;;;;1.67;1.57;;;18.70;99.90;;;;;;5111908;27;20496;-88
2022/09/01 09:29:52;;;;;;;1.80;1.70;;;19.00;99.90;;;;;;5108686;27;20475;-88
2022/09/01 09:32:20;;;;;;;1.23;1.10;;;18.90;99.90;;;;;;5106845;27;20468;-85
2022/09/01 09:34:48;;;;;;;1.53;1.43;;;18.90;99.90;;;;;;5112170;27;20473;-87
2022/09/01 09:37:24;;;;;;;3.13;1.33;;;19.10;99.90;;;;;;5107663;27;20467;-84
2022/09/01 09:40:13;;;;;;;1.20;1.10;;;19.20;99.90;;;;;;5101252;27;20453;-85
2022/09/01 09:42:59;;;;;;;1.50;0.97;;;20.00;99.90;;;;;;5104915;27;20465;-86
2022/09/01 09:45:29;;;;;;;1.00;0.90;;;20.70;99.90;;;;;;5097590;27;20468;-86
2022/09/01 09:47:57;;;;;;;1.50;1.40;;;20.30;99.90;;;;;;5107575;27;20508;-86
2022/09/01 09:50:28;;;;;;;4.30;0.90;;;19.90;99.90;;;;;;5106927;27;20475;-86
2022/09/01 09:53:12;;;;;;;0.90;0.80;;;20.00;99.90;;;;;;5102914;27;20806;-85
2022/09/01 09:55:55;;;;;;;2.80;1.77;;;20.10;99.90;;;;;;5104181;27;20520;-86
2022/09/01 09:58:26;;;;;;;14.20;1.63;;;19.70;99.90;;;;;;5103260;27;21015;-86
2022/09/01 10:01:06;;;;;;;0.90;0.60;;;19.70;99.90;;;;;;5110177;27;20603;-86
2022/09/01 10:03:42;;;;;;;1.33;0.83;;;20.00;99.90;;;;;;5103493;27;20507;-86
2022/09/01 10:06:28;;;;;;;1.10;1.10;;;20.10;99.90;;;;;;5103349;27;20470;-86
2022/09/01 10:08:55;;;;;;;1.23;0.97;;;20.10;99.90;;;;;;5104339;27;20508;-86
2022/09/01 10:11:29;;;;;;;0.80;0.80;;;20.00;99.90;;;;;;5107210;27;20538;-86
2022/09/01 10:13:57;;;;;;;0.60;0.60;;;20.00;99.90;;;;;;5106237;27;20497;-86
2022/09/01 10:16:30;;;;;;;0.97;0.67;;;20.30;99.90;;;;;;5104359;27;20510;-88
2022/09/01 10:19:01;;;;;;;0.60;0.50;;;20.70;98.70;;;;;;5109709;27;20553;-89
2022/09/01 10:21:33;;;;;;;0.70;0.67;;;21.30;99.90;;;;;;5111873;27;20881;-88
2022/09/01 10:24:03;;;;;;;0.70;0.70;;;21.70;99.90;;;;;;5107881;27;20472;-89
2022/09/01 10:26:35;;;;;;;1.63;0.80;;;22.00;99.90;;;;;;5104327;27;20500;-84
2022/09/01 10:29:12;;;;;;;0.90;0.83;;;21.70;99.90;;;;;;5098915;27;20904;-86
2022/09/01 10:31:41;;;;;;;0.60;0.60;;;21.80;99.90;;;;;;5103120;27;20490;-85
2022/09/01 10:34:14;;;;;;;1.00;0.60;;;22.20;99.90;;;;;;5101691;28;20466;-91
2022/09/01 10:36:43;;;;;;;0.80;0.80;;;22.50;99.90;;;;;;5094262;28;20464;-87
2022/09/01 10:39:12;;;;;;;0.60;0.50;;;22.10;98.80;;;;;;5102010;27;20512;-85
2022/09/01 10:41:49;;;;;;;3.20;0.73;;;21.90;99.90;;;;;;5095475;28;20854;-85
2022/09/01 10:44:25;;;;;;;1.07;0.97;;;21.90;98.40;;;;;;5099575;27;20461;-92
2022/09/01 10:46:53;;;;;;;1.10;0.60;;;22.10;98.30;;;;;;5101817;27;20458;-86
2022/09/01 10:49:49;;;;;;;0.70;0.67;;;22.20;97.70;;;;;;5102280;27;20952;-86
2022/09/01 10:52:55;;;;;;;0.70;0.40;;;22.30;98.00;;;;;;5097330;27;21548;-86
2022/09/01 10:55:25;;;;;;;0.70;0.60;;;22.20;98.50;;;;;;5085451;27;20944;-87
2022/09/01 10:58:00;;;;;;;0.70;0.50;;;22.20;98.20;;;;;;5106609;27;20536;-86
2022/09/01 11:01:01;;;;;;;0.90;0.60;;;22.10;96.30;;;;;;5096750;27;20647;-87
2022/09/01 11:03:48;;;;;;;0.57;0.40;;;22.10;95.90;;;;;;5091831;27;20958;-87
2022/09/01 11:06:43;;;;;;;0.80;0.70;;;22.10;93.70;;;;;;5098943;28;20526;-87
2022/09/01 11:09:20;;;;;;;0.50;0.50;;;22.00;94.90;;;;;;5097084;27;20467;-86
2022/09/01 11:12:00;;;;;;;0.80;0.60;;;22.50;95.70;;;;;;5103083;27;20534;-86
2022/09/01 11:14:34;;;;;;;1.00;0.60;;;22.50;94.80;;;;;;5104274;27;20953;-89
2022/09/01 11:17:19;;;;;;;1.27;0.70;;;22.40;94.70;;;;;;5082043;27;20458;-87
2022/09/01 11:19:54;;;;;;;0.60;0.40;;;22.30;95.40;;;;;;5086130;27;21118;-84
2022/09/01 11:22:31;;;;;;;1.03;0.60;;;22.40;96.40;;;;;;5107128;27;20465;-84
2022/09/01 11:25:12;;;;;;;0.77;0.77;;;22.20;93.60;;;;;;5103534;27;20507;-83
2022/09/01 11:28:01;;;;;;;0.60;0.43;;;22.50;94.80;;;;;;5092786;27;22204;-79
2022/09/01 11:30:40;;;;;;;0.63;0.47;;;22.80;93.30;;;;;;5091741;27;20469;-82
2022/09/01 11:33:21;;;;;;;0.70;0.60;;;22.90;94.00;;;;;;5102942;27;20517;-81
2022/09/01 11:35:59;;;;;;;0.63;0.50;;;22.80;94.30;;;;;;5085294;27;22705;-84
2022/09/01 11:38:28;;;;;;;0.77;0.57;;;22.70;94.50;;;;;;5095100;27;20578;-84
2022/09/01 11:40:56;;;;;;;0.80;0.60;;;22.70;93.50;;;;;;5101585;27;21453;-82
2022/09/01 11:43:25;;;;;;;0.60;0.50;;;22.60;94.00;;;;;;5100747;27;20458;-83
2022/09/01 11:46:02;;;;;;;1.47;0.50;;;22.80;94.10;;;;;;5103015;27;20492;-81
2022/09/01 11:48:30;;;;;;;1.00;0.50;;;23.40;92.90;;;;;;5100168;27;20476;-81
2022/09/01 11:51:00;;;;;;;0.60;0.50;;;23.70;91.50;;;;;;5095019;27;20485;-84
2022/09/01 11:53:28;;;;;;;1.63;0.70;;;24.00;90.60;;;;;;5097678;27;20506;-85
2022/09/01 11:56:11;;;;;;;1.17;0.60;;;23.70;89.30;;;;;;5099834;27;20463;-84
2022/09/01 11:58:40;;;;;;;0.93;0.50;;;23.70;91.40;;;;;;5098518;27;20465;-82
2022/09/01 12:01:19;;;;;;;0.90;0.50;;;23.20;90.70;;;;;;5103967;27;20893;-82
2022/09/01 12:03:50;;;;;;;0.70;0.50;;;23.30;89.20;;;;;;5097208;27;20461;-85
2022/09/01 12:06:21;;;;;;;0.60;0.57;;;22.60;85.70;;;;;;5097282;27;20462;-87
2022/09/01 12:08:55;;;;;;;0.50;0.43;;;22.10;87.20;;;;;;5101760;27;20577;-81
2022/09/01 12:11:29;;;;;;;0.50;0.50;;;22.10;90.60;;;;;;5101331;27;21553;-82
2022/09/01 12:14:00;;;;;;;1.00;0.70;;;22.10;90.60;;;;;;5096094;28;20461;-79
2022/09/01 12:16:28;;;;;;;0.70;0.70;;;22.00;90.90;;;;;;5101230;27;20470;-80
2022/09/01 12:18:59;;;;;;;4.30;0.50;;;22.30;94.80;;;;;;5093520;28;20498;-80
2022/09/01 12:21:28;;;;;;;2.33;0.50;;;22.60;93.80;;;;;;5095349;27;20468;-83
2022/09/01 12:24:10;;;;;;;0.60;0.60;;;22.60;93.30;;;;;;5099049;27;20461;-80
2022/09/01 12:26:39;;;;;;;1.80;0.77;;;22.00;92.70;;;;;;5094563;27;20487;-85
2022/09/01 12:29:06;;;;;;;2.00;0.60;;;21.80;94.20;;;;;;5096940;28;20462;-83
2022/09/01 12:31:34;;;;;;;2.70;0.60;;;21.80;94.60;;;;;;5101020;28;21073;-82
2022/09/01 12:34:03;;;;;;;1.00;0.60;;;21.70;94.90;;;;;;5100855;28;20473;-86
2022/09/01 12:36:33;;;;;;;0.90;0.57;;;21.80;93.60;;;;;;5103831;28;20867;-82
2022/09/01 12:39:22;;;;;;;1.30;0.60;;;21.90;94.60;;;;;;5104941;28;20462;-82
2022/09/01 12:42:03;;;;;;;0.70;0.50;;;21.70;93.60;;;;;;5100550;28;20601;-85
2022/09/01 12:44:33;;;;;;;0.70;0.70;;;21.80;95.10;;;;;;5097569;28;20808;-81
2022/09/01 12:47:02;;;;;;;0.80;0.60;;;21.90;95.20;;;;;;5102664;28;20952;-81
2022/09/01 12:49:39;;;;;;;0.80;0.60;;;21.70;94.40;;;;;;5103276;27;20449;-82
2022/09/01 12:52:18;;;;;;;1.00;0.60;;;21.40;94.60;;;;;;5105641;28;20553;-85
2022/09/01 12:54:46;;;;;;;1.03;0.53;;;21.30;94.80;;;;;;5105067;28;20555;-81
2022/09/01 12:57:27;;;;;;;1.00;0.83;;;21.00;95.90;;;;;;5100056;28;20479;-85
2022/09/01 13:00:15;;;;;;;0.50;0.40;;;20.90;97.30;;;;;;5099196;27;20501;-82
2022/09/01 13:02:44;;;;;;;1.03;0.70;;;20.80;97.20;;;;;;5104144;27;21027;-82
2022/09/01 13:05:25;;;;;;;0.60;0.60;;;20.70;97.70;;;;;;5108075;27;20467;-87
2022/09/01 13:07:54;;;;;;;1.37;0.60;;;20.60;97.30;;;;;;5100031;27;20466;-82
2022/09/01 13:10:22;;;;;;;5.87;0.80;;;20.50;98.30;;;;;;5111388;27;20454;-82
2022/09/01 13:12:49;;;;;;;0.70;0.63;;;20.20;99.00;;;;;;5108878;27;20494;-82